sensor_id;sensor_type;location;lat;lon;timestamp;pressure;altitude;pressure_sealevel;temperature;humidity
13695;BME280;6919;52.344;14.518;2023-06-19T00:01:59;100577.69;;;18.29;100.00
13695;BME280;6919;52.344;14.518;2023-06-19T00:04:27;100580.00;;;18.32;100.00
13695;BME280;6919;52.344;14.518;2023-06-19T00:06:56;100581.44;;;18.28;100.00
13695;BME280;6919;52.344;14.518;2023-06-19T00:09:24;100580.38;;;18.29;100.00
13695;BME280;6919;52.344;14.518;2023-06-19T00:11:52;100579.31;;;18.17;100.00
13695;BME280;6919;52.344;14.518;2023-06-19T00:14:21;100580.31;;;18.09;100.00
13695;BME280;6919;52.344;14.518;2023-06-19T00:16:51;100576.75;;;18.09;100.00
13695;BME280;6919;52.344;14.518;2023-06-19T00:19:19;100582.63;;;18.12;100.00
13695;BME280;6919;52.344;14.518;2023-06-19T00:21:47;100575.97;;;18.15;100.00
13695;BME280;6919;52.344;14.518;2023-06-19T00:24:15;100584.94;;;18.15;100.00
13695;BME280;6919;52.344;14.518;2023-06-19T00:26:44;100573.47;;;18.20;100.00
13695;BME280;6919;52.344;14.518;2023-06-19T00:29:12;100582.84;;;18.17;100.00
13695;BME280;6919;52.344;14.518;2023-06-19T00:31:40;100584.09;;;18.15;100.00
13695;BME280;6919;52.344;14.518;2023-06-19T00:34:10;100577.03;;;18.27;100.00
13695;BME280;6919;52.344;14.518;2023-06-19T00:36:38;100571.59;;;18.27;100.00
13695;BME280;6919;52.344;14.518;2023-06-19T00:39:08;100582.53;;;18.46;100.00
13695;BME280;6919;52.344;14.518;2023-06-19T00:41:36;100576.72;;;18.49;100.00
13695;BME280;6919;52.344;14.518;2023-06-19T00:44:05;100580.88;;;18.39;100.00
13695;BME280;6919;52.344;14.518;2023-06-19T00:46:37;100578.88;;;18.13;100.00
13695;BME280;6919;52.344;14.518;2023-06-19T00:49:09;100583.22;;;18.01;100.00
13695;BME280;6919;52.344;14.518;2023-06-19T00:51:38;100585.69;;;17.96;100.00
13695;BME280;6919;52.344;14.518;2023-06-19T00:54:07;100583.72;;;17.77;100.00
13695;BME280;6919;52.344;14.518;2023-06-19T00:56:37;100581.22;;;17.76;100.00
13695;BME280;6919;52.344;14.518;2023-06-19T00:59:15;100588.88;;;17.66;100.00
13695;BME280;6919;52.344;14.518;2023-06-19T01:01:44;100583.91;;;17.69;100.00
13695;BME280;6919;52.344;14.518;2023-06-19T01:04:14;100587.13;;;17.86;100.00
13695;BME280;6919;52.344;14.518;2023-06-19T01:06:52;100583.06;;;17.69;100.00
13695;BME280;6919;52.344;14.518;2023-06-19T01:09:29;100588.47;;;17.69;100.00
13695;BME280;6919;52.344;14.518;2023-06-19T01:12:07;100582.66;;;17.72;100.00
13695;BME280;6919;52.344;14.518;2023-06-19T01:14:45;100592.19;;;17.61;100.00
13695;BME280;6919;52.344;14.518;2023-06-19T01:17:16;100578.47;;;17.69;100.00
13695;BME280;6919;52.344;14.518;2023-06-19T01:19:46;100583.47;;;17.72;100.00
13695;BME280;6919;52.344;14.518;2023-06-19T01:22:26;100582.22;;;17.68;100.00
13695;BME280;6919;52.344;14.518;2023-06-19T01:24:54;100578.69;;;17.68;100.00
13695;BME280;6919;52.344;14.518;2023-06-19T01:27:25;100576.78;;;17.68;100.00
13695;BME280;6919;52.344;14.518;2023-06-19T01:29:57;100574.53;;;17.72;100.00
13695;BME280;6919;52.344;14.518;2023-06-19T01:32:35;100577.03;;;17.73;100.00
13695;BME280;6919;52.344;14.518;2023-06-19T01:35:07;100576.38;;;17.65;100.00
13695;BME280;6919;52.344;14.518;2023-06-19T01:37:40;100570.75;;;17.73;100.00
13695;BME280;6919;52.344;14.518;2023-06-19T01:40:11;100568.44;;;17.70;100.00
13695;BME280;6919;52.344;14.518;2023-06-19T01:42:41;100572.69;;;17.85;100.00
13695;BME280;6919;52.344;14.518;2023-06-19T01:45:11;100566.00;;;17.81;100.00
13695;BME280;6919;52.344;14.518;2023-06-19T01:47:39;100571.13;;;18.04;100.00
13695;BME280;6919;52.344;14.518;2023-06-19T01:50:09;100563.78;;;17.98;100.00
13695;BME280;6919;52.344;14.518;2023-06-19T01:52:39;100567.88;;;17.81;100.00
13695;BME280;6919;52.344;14.518;2023-06-19T01:55:08;100564.34;;;17.80;100.00
13695;BME280;6919;52.344;14.518;2023-06-19T01:57:37;100556.78;;;17.69;100.00
13695;BME280;6919;52.344;14.518;2023-06-19T02:00:07;100559.91;;;17.73;100.00
13695;BME280;6919;52.344;14.518;2023-06-19T02:02:37;100561.75;;;17.66;100.00
13695;BME280;6919;52.344;14.518;2023-06-19T02:05:06;100556.59;;;17.77;100.00
13695;BME280;6919;52.344;14.518;2023-06-19T02:07:34;100562.06;;;17.84;100.00
13695;BME280;6919;52.344;14.518;2023-06-19T02:10:06;100558.63;;;18.09;100.00
13695;BME280;6919;52.344;14.518;2023-06-19T02:12:35;100561.25;;;17.90;100.00
13695;BME280;6919;52.344;14.518;2023-06-19T02:15:04;100549.75;;;17.81;100.00
13695;BME280;6919;52.344;14.518;2023-06-19T02:17:32;100550.94;;;17.72;100.00
13695;BME280;6919;52.344;14.518;2023-06-19T02:20:01;100545.16;;;17.82;100.00
13695;BME280;6919;52.344;14.518;2023-06-19T02:22:32;100544.50;;;17.80;100.00
13695;BME280;6919;52.344;14.518;2023-06-19T02:25:01;100544.50;;;17.73;100.00
13695;BME280;6919;52.344;14.518;2023-06-19T02:27:30;100538.38;;;18.12;100.00
13695;BME280;6919;52.344;14.518;2023-06-19T02:29:59;100534.03;;;17.70;100.00
13695;BME280;6919;52.344;14.518;2023-06-19T02:32:27;100531.03;;;18.06;100.00
13695;BME280;6919;52.344;14.518;2023-06-19T02:34:55;100528.63;;;17.77;100.00
13695;BME280;6919;52.344;14.518;2023-06-19T02:37:23;100529.28;;;17.79;100.00
13695;BME280;6919;52.344;14.518;2023-06-19T02:39:52;100539.66;;;17.69;100.00
13695;BME280;6919;52.344;14.518;2023-06-19T02:42:20;100531.72;;;17.67;100.00
13695;BME280;6919;52.344;14.518;2023-06-19T02:44:50;100525.88;;;17.64;100.00
13695;BME280;6919;52.344;14.518;2023-06-19T02:47:18;100527.16;;;17.68;100.00
13695;BME280;6919;52.344;14.518;2023-06-19T02:49:47;100524.75;;;17.99;100.00
13695;BME280;6919;52.344;14.518;2023-06-19T02:52:15;100523.81;;;17.72;100.00
13695;BME280;6919;52.344;14.518;2023-06-19T02:54:43;100519.16;;;17.60;100.00
13695;BME280;6919;52.344;14.518;2023-06-19T02:57:11;100522.19;;;17.78;100.00
13695;BME280;6919;52.344;14.518;2023-06-19T02:59:40;100522.03;;;17.99;100.00
13695;BME280;6919;52.344;14.518;2023-06-19T03:02:09;100525.13;;;17.89;100.00
13695;BME280;6919;52.344;14.518;2023-06-19T03:04:39;100534.47;;;17.74;100.00
13695;BME280;6919;52.344;14.518;2023-06-19T03:07:08;100530.44;;;17.57;100.00
13695;BME280;6919;52.344;14.518;2023-06-19T03:09:36;100521.66;;;17.55;100.00
13695;BME280;6919;52.344;14.518;2023-06-19T03:12:06;100525.69;;;17.37;100.00
13695;BME280;6919;52.344;14.518;2023-06-19T03:14:34;100525.16;;;17.48;100.00
13695;BME280;6919;52.344;14.518;2023-06-19T03:17:03;100530.84;;;17.60;100.00
13695;BME280;6919;52.344;14.518;2023-06-19T03:19:33;100526.66;;;17.51;100.00
13695;BME280;6919;52.344;14.518;2023-06-19T03:22:01;100526.69;;;17.58;100.00
13695;BME280;6919;52.344;14.518;2023-06-19T03:24:30;100526.13;;;17.75;100.00
13695;BME280;6919;52.344;14.518;2023-06-19T03:26:58;100525.72;;;17.72;100.00
13695;BME280;6919;52.344;14.518;2023-06-19T03:29:27;100527.53;;;17.58;100.00
13695;BME280;6919;52.344;14.518;2023-06-19T03:31:55;100533.41;;;17.68;100.00
13695;BME280;6919;52.344;14.518;2023-06-19T03:34:23;100533.97;;;18.04;100.00
13695;BME280;6919;52.344;14.518;2023-06-19T03:36:53;100520.75;;;17.82;100.00
13695;BME280;6919;52.344;14.518;2023-06-19T03:39:21;100521.16;;;17.79;100.00
13695;BME280;6919;52.344;14.518;2023-06-19T03:41:49;100523.88;;;17.85;100.00
13695;BME280;6919;52.344;14.518;2023-06-19T03:44:18;100522.59;;;17.75;100.00
13695;BME280;6919;52.344;14.518;2023-06-19T03:46:46;100525.06;;;17.70;100.00
13695;BME280;6919;52.344;14.518;2023-06-19T03:49:15;100536.97;;;17.75;100.00
13695;BME280;6919;52.344;14.518;2023-06-19T03:51:43;100529.50;;;17.84;100.00
13695;BME280;6919;52.344;14.518;2023-06-19T03:54:13;100537.03;;;17.82;100.00
13695;BME280;6919;52.344;14.518;2023-06-19T03:56:41;100542.59;;;17.74;100.00
13695;BME280;6919;52.344;14.518;2023-06-19T03:59:09;100546.75;;;17.70;100.00
13695;BME280;6919;52.344;14.518;2023-06-19T04:01:38;100544.84;;;18.04;100.00
13695;BME280;6919;52.344;14.518;2023-06-19T04:04:07;100543.19;;;18.16;100.00
13695;BME280;6919;52.344;14.518;2023-06-19T04:06:36;100546.44;;;18.46;100.00
13695;BME280;6919;52.344;14.518;2023-06-19T04:09:04;100550.84;;;18.60;100.00
13695;BME280;6919;52.344;14.518;2023-06-19T04:11:34;100549.78;;;18.67;100.00
13695;BME280;6919;52.344;14.518;2023-06-19T04:14:02;100554.00;;;18.96;100.00
13695;BME280;6919;52.344;14.518;2023-06-19T04:16:31;100548.75;;;19.07;100.00
13695;BME280;6919;52.344;14.518;2023-06-19T04:18:59;100548.75;;;19.14;100.00
13695;BME280;6919;52.344;14.518;2023-06-19T04:21:27;100545.63;;;18.97;100.00
13695;BME280;6919;52.344;14.518;2023-06-19T04:23:56;100544.16;;;19.01;100.00
13695;BME280;6919;52.344;14.518;2023-06-19T04:26:24;100559.44;;;18.96;100.00
13695;BME280;6919;52.344;14.518;2023-06-19T04:28:53;100553.34;;;19.07;100.00
13695;BME280;6919;52.344;14.518;2023-06-19T04:31:23;100559.81;;;18.99;100.00
13695;BME280;6919;52.344;14.518;2023-06-19T04:33:53;100560.88;;;19.11;100.00
13695;BME280;6919;52.344;14.518;2023-06-19T04:36:23;100562.34;;;19.01;100.00
13695;BME280;6919;52.344;14.518;2023-06-19T04:38:51;100567.97;;;19.12;100.00
13695;BME280;6919;52.344;14.518;2023-06-19T04:41:20;100561.72;;;19.18;100.00
13695;BME280;6919;52.344;14.518;2023-06-19T04:43:48;100561.09;;;19.29;100.00
13695;BME280;6919;52.344;14.518;2023-06-19T04:46:18;100559.97;;;19.69;100.00
13695;BME280;6919;52.344;14.518;2023-06-19T04:48:47;100560.97;;;19.81;100.00
13695;BME280;6919;52.344;14.518;2023-06-19T04:51:17;100554.16;;;20.10;100.00
13695;BME280;6919;52.344;14.518;2023-06-19T04:53:48;100557.63;;;20.30;100.00
13695;BME280;6919;52.344;14.518;2023-06-19T04:56:16;100556.31;;;20.70;100.00
13695;BME280;6919;52.344;14.518;2023-06-19T04:58:44;100551.78;;;20.89;100.00
13695;BME280;6919;52.344;14.518;2023-06-19T05:01:14;100548.50;;;20.80;100.00
13695;BME280;6919;52.344;14.518;2023-06-19T05:03:45;100555.25;;;21.02;100.00
13695;BME280;6919;52.344;14.518;2023-06-19T05:06:13;100554.66;;;21.00;100.00
13695;BME280;6919;52.344;14.518;2023-06-19T05:08:42;100549.03;;;20.95;100.00
13695;BME280;6919;52.344;14.518;2023-06-19T05:11:10;100553.31;;;20.54;100.00
13695;BME280;6919;52.344;14.518;2023-06-19T05:13:39;100550.31;;;20.31;100.00
13695;BME280;6919;52.344;14.518;2023-06-19T05:16:07;100566.19;;;20.34;100.00
13695;BME280;6919;52.344;14.518;2023-06-19T05:18:35;100567.91;;;20.28;100.00
13695;BME280;6919;52.344;14.518;2023-06-19T05:21:05;100564.16;;;20.29;100.00
13695;BME280;6919;52.344;14.518;2023-06-19T05:23:34;100565.72;;;19.99;100.00
13695;BME280;6919;52.344;14.518;2023-06-19T05:26:03;100573.69;;;19.94;100.00
13695;BME280;6919;52.344;14.518;2023-06-19T05:28:32;100567.03;;;19.90;100.00
13695;BME280;6919;52.344;14.518;2023-06-19T05:31:00;100572.19;;;20.04;100.00
13695;BME280;6919;52.344;14.518;2023-06-19T05:33:28;100571.75;;;20.07;100.00
13695;BME280;6919;52.344;14.518;2023-06-19T05:35:56;100569.75;;;19.83;100.00
13695;BME280;6919;52.344;14.518;2023-06-19T05:38:26;100572.53;;;19.64;100.00
13695;BME280;6919;52.344;14.518;2023-06-19T05:40:57;100569.97;;;19.88;100.00
13695;BME280;6919;52.344;14.518;2023-06-19T05:43:26;100577.91;;;19.83;100.00
13695;BME280;6919;52.344;14.518;2023-06-19T05:45:54;100571.66;;;19.83;100.00
13695;BME280;6919;52.344;14.518;2023-06-19T05:48:25;100577.22;;;20.01;100.00
13695;BME280;6919;52.344;14.518;2023-06-19T05:50:54;100578.06;;;20.01;100.00
13695;BME280;6919;52.344;14.518;2023-06-19T05:53:22;100578.25;;;20.13;100.00
13695;BME280;6919;52.344;14.518;2023-06-19T05:55:52;100573.56;;;20.27;100.00
13695;BME280;6919;52.344;14.518;2023-06-19T05:58:20;100572.94;;;20.62;100.00
13695;BME280;6919;52.344;14.518;2023-06-19T06:00:49;100573.91;;;20.74;100.00
13695;BME280;6919;52.344;14.518;2023-06-19T06:03:17;100577.25;;;20.45;100.00
13695;BME280;6919;52.344;14.518;2023-06-19T06:05:45;100585.19;;;20.47;100.00
13695;BME280;6919;52.344;14.518;2023-06-19T06:08:16;100578.09;;;20.39;100.00
13695;BME280;6919;52.344;14.518;2023-06-19T06:10:44;100577.09;;;20.34;100.00
13695;BME280;6919;52.344;14.518;2023-06-19T06:13:14;100585.16;;;20.53;100.00
13695;BME280;6919;52.344;14.518;2023-06-19T06:15:42;100578.41;;;20.62;100.00
13695;BME280;6919;52.344;14.518;2023-06-19T06:18:10;100590.72;;;20.71;100.00
13695;BME280;6919;52.344;14.518;2023-06-19T06:20:39;100592.44;;;20.90;100.00
13695;BME280;6919;52.344;14.518;2023-06-19T06:23:07;100602.13;;;20.86;100.00
13695;BME280;6919;52.344;14.518;2023-06-19T06:25:36;100603.00;;;20.80;100.00
13695;BME280;6919;52.344;14.518;2023-06-19T06:28:04;100607.84;;;21.09;100.00
13695;BME280;6919;52.344;14.518;2023-06-19T06:30:34;100603.53;;;21.02;100.00
13695;BME280;6919;52.344;14.518;2023-06-19T06:33:02;100603.06;;;21.29;100.00
13695;BME280;6919;52.344;14.518;2023-06-19T06:35:31;100604.34;;;21.27;100.00
13695;BME280;6919;52.344;14.518;2023-06-19T06:38:01;100599.22;;;21.79;100.00
13695;BME280;6919;52.344;14.518;2023-06-19T06:40:29;100597.72;;;22.01;100.00
13695;BME280;6919;52.344;14.518;2023-06-19T06:42:58;100593.78;;;21.97;100.00
13695;BME280;6919;52.344;14.518;2023-06-19T06:45:26;100595.25;;;22.29;100.00
13695;BME280;6919;52.344;14.518;2023-06-19T06:47:56;100591.97;;;22.39;100.00
13695;BME280;6919;52.344;14.518;2023-06-19T06:50:24;100594.22;;;22.42;100.00
13695;BME280;6919;52.344;14.518;2023-06-19T06:52:53;100586.81;;;22.31;100.00
13695;BME280;6919;52.344;14.518;2023-06-19T06:55:21;100596.19;;;22.05;100.00
13695;BME280;6919;52.344;14.518;2023-06-19T06:57:50;100588.13;;;22.28;100.00
13695;BME280;6919;52.344;14.518;2023-06-19T07:00:18;100587.00;;;22.47;100.00
13695;BME280;6919;52.344;14.518;2023-06-19T07:02:47;100588.34;;;22.27;100.00
13695;BME280;6919;52.344;14.518;2023-06-19T07:05:19;100597.25;;;22.04;100.00
13695;BME280;6919;52.344;14.518;2023-06-19T07:07:47;100588.94;;;22.76;100.00
13695;BME280;6919;52.344;14.518;2023-06-19T07:10:16;100591.41;;;22.66;100.00
13695;BME280;6919;52.344;14.518;2023-06-19T07:12:46;100585.00;;;22.43;100.00
13695;BME280;6919;52.344;14.518;2023-06-19T07:15:15;100589.00;;;22.40;100.00
13695;BME280;6919;52.344;14.518;2023-06-19T07:17:44;100592.84;;;22.21;100.00
13695;BME280;6919;52.344;14.518;2023-06-19T07:20:13;100588.00;;;22.05;100.00
13695;BME280;6919;52.344;14.518;2023-06-19T07:22:43;100593.06;;;22.20;100.00
13695;BME280;6919;52.344;14.518;2023-06-19T07:25:13;100591.53;;;22.24;100.00
13695;BME280;6919;52.344;14.518;2023-06-19T07:27:42;100592.25;;;22.01;100.00
13695;BME280;6919;52.344;14.518;2023-06-19T07:30:11;100599.69;;;21.94;100.00
13695;BME280;6919;52.344;14.518;2023-06-19T07:32:43;100600.63;;;21.64;100.00
13695;BME280;6919;52.344;14.518;2023-06-19T07:35:11;100607.06;;;21.69;100.00
13695;BME280;6919;52.344;14.518;2023-06-19T07:37:39;100606.38;;;21.56;100.00
13695;BME280;6919;52.344;14.518;2023-06-19T07:40:11;100605.09;;;21.58;100.00
13695;BME280;6919;52.344;14.518;2023-06-19T07:42:39;100601.16;;;21.54;100.00
13695;BME280;6919;52.344;14.518;2023-06-19T07:45:12;100605.00;;;21.47;100.00
13695;BME280;6919;52.344;14.518;2023-06-19T07:47:41;100608.44;;;21.36;100.00
13695;BME280;6919;52.344;14.518;2023-06-19T07:50:10;100603.31;;;21.46;100.00
13695;BME280;6919;52.344;14.518;2023-06-19T07:52:38;100608.25;;;21.55;100.00
13695;BME280;6919;52.344;14.518;2023-06-19T07:55:09;100610.25;;;21.66;100.00
13695;BME280;6919;52.344;14.518;2023-06-19T07:57:37;100610.88;;;21.68;100.00
13695;BME280;6919;52.344;14.518;2023-06-19T08:00:07;100611.13;;;21.85;100.00
13695;BME280;6919;52.344;14.518;2023-06-19T08:02:37;100606.84;;;21.77;100.00
13695;BME280;6919;52.344;14.518;2023-06-19T08:05:08;100607.50;;;21.91;100.00
13695;BME280;6919;52.344;14.518;2023-06-19T08:07:37;100606.66;;;21.90;100.00
13695;BME280;6919;52.344;14.518;2023-06-19T08:10:06;100599.41;;;22.02;100.00
13695;BME280;6919;52.344;14.518;2023-06-19T08:12:43;100609.63;;;21.89;100.00
13695;BME280;6919;52.344;14.518;2023-06-19T08:15:12;100616.69;;;21.96;100.00
13695;BME280;6919;52.344;14.518;2023-06-19T08:17:42;100613.16;;;22.25;100.00
13695;BME280;6919;52.344;14.518;2023-06-19T08:20:11;100612.59;;;22.23;100.00
13695;BME280;6919;52.344;14.518;2023-06-19T08:22:40;100617.28;;;22.34;100.00
13695;BME280;6919;52.344;14.518;2023-06-19T08:25:08;100624.31;;;22.24;100.00
13695;BME280;6919;52.344;14.518;2023-06-19T08:27:37;100618.81;;;22.60;100.00
13695;BME280;6919;52.344;14.518;2023-06-19T08:30:08;100606.22;;;22.88;100.00
13695;BME280;6919;52.344;14.518;2023-06-19T08:32:36;100615.03;;;22.91;100.00
13695;BME280;6919;52.344;14.518;2023-06-19T08:35:05;100615.03;;;23.02;100.00
13695;BME280;6919;52.344;14.518;2023-06-19T08:37:36;100618.41;;;23.16;100.00
13695;BME280;6919;52.344;14.518;2023-06-19T08:40:06;100619.91;;;23.64;100.00
13695;BME280;6919;52.344;14.518;2023-06-19T08:42:36;100622.50;;;23.71;100.00
13695;BME280;6919;52.344;14.518;2023-06-19T08:45:08;100617.63;;;23.84;100.00
13695;BME280;6919;52.344;14.518;2023-06-19T08:47:37;100620.00;;;24.04;100.00
13695;BME280;6919;52.344;14.518;2023-06-19T08:50:07;100623.47;;;24.39;100.00
13695;BME280;6919;52.344;14.518;2023-06-19T08:52:35;100624.97;;;24.58;100.00
13695;BME280;6919;52.344;14.518;2023-06-19T08:55:05;100622.50;;;25.01;100.00
13695;BME280;6919;52.344;14.518;2023-06-19T08:57:35;100618.66;;;24.85;100.00
13695;BME280;6919;52.344;14.518;2023-06-19T09:00:05;100611.00;;;24.71;100.00
13695;BME280;6919;52.344;14.518;2023-06-19T09:02:41;100615.53;;;24.65;100.00
13695;BME280;6919;52.344;14.518;2023-06-19T09:05:14;100620.28;;;25.14;100.00
13695;BME280;6919;52.344;14.518;2023-06-19T09:07:44;100620.38;;;25.52;100.00
13695;BME280;6919;52.344;14.518;2023-06-19T09:10:18;100620.59;;;25.84;100.00
13695;BME280;6919;52.344;14.518;2023-06-19T09:12:57;100612.41;;;25.89;95.27
13695;BME280;6919;52.344;14.518;2023-06-19T09:15:31;100612.22;;;25.74;96.53
13695;BME280;6919;52.344;14.518;2023-06-19T09:18:03;100609.47;;;25.74;92.66
13695;BME280;6919;52.344;14.518;2023-06-19T09:20:33;100614.03;;;26.23;90.69
13695;BME280;6919;52.344;14.518;2023-06-19T09:23:03;100607.25;;;26.09;88.51
13695;BME280;6919;52.344;14.518;2023-06-19T09:25:31;100607.88;;;25.78;89.31
13695;BME280;6919;52.344;14.518;2023-06-19T09:27:59;100611.63;;;25.72;95.86
13695;BME280;6919;52.344;14.518;2023-06-19T09:30:27;100608.53;;;26.23;91.95
13695;BME280;6919;52.344;14.518;2023-06-19T09:33:07;100612.63;;;26.47;90.97
13695;BME280;6919;52.344;14.518;2023-06-19T09:35:36;100612.09;;;26.45;87.09
13695;BME280;6919;52.344;14.518;2023-06-19T09:38:05;100609.84;;;26.64;84.22
13695;BME280;6919;52.344;14.518;2023-06-19T09:40:33;100608.50;;;26.45;85.16
13695;BME280;6919;52.344;14.518;2023-06-19T09:43:04;100609.53;;;26.87;85.48
13695;BME280;6919;52.344;14.518;2023-06-19T09:45:35;100614.19;;;26.38;82.46
13695;BME280;6919;52.344;14.518;2023-06-19T09:48:05;100620.19;;;26.57;80.87
13695;BME280;6919;52.344;14.518;2023-06-19T09:50:39;100611.41;;;27.13;78.15
13695;BME280;6919;52.344;14.518;2023-06-19T09:53:10;100607.25;;;26.79;78.42
13695;BME280;6919;52.344;14.518;2023-06-19T09:55:38;100620.31;;;26.67;78.61
13695;BME280;6919;52.344;14.518;2023-06-19T09:58:07;100605.59;;;26.78;80.30
13695;BME280;6919;52.344;14.518;2023-06-19T10:00:37;100614.41;;;27.06;78.68
13695;BME280;6919;52.344;14.518;2023-06-19T10:03:12;100617.53;;;26.88;77.42
13695;BME280;6919;52.344;14.518;2023-06-19T10:05:42;100617.13;;;26.75;71.82
13695;BME280;6919;52.344;14.518;2023-06-19T10:08:10;100605.94;;;26.60;75.60
13695;BME280;6919;52.344;14.518;2023-06-19T10:10:47;100616.53;;;26.99;72.20
13695;BME280;6919;52.344;14.518;2023-06-19T10:13:16;100606.66;;;27.03;71.75
13695;BME280;6919;52.344;14.518;2023-06-19T10:15:45;100609.25;;;27.15;71.59
13695;BME280;6919;52.344;14.518;2023-06-19T10:18:16;100611.88;;;27.31;65.61
13695;BME280;6919;52.344;14.518;2023-06-19T10:20:47;100610.53;;;27.34;70.30
13695;BME280;6919;52.344;14.518;2023-06-19T10:23:17;100613.34;;;27.80;64.38
13695;BME280;6919;52.344;14.518;2023-06-19T10:25:54;100607.56;;;28.34;66.63
13695;BME280;6919;52.344;14.518;2023-06-19T10:28:25;100609.59;;;28.58;62.70
13695;BME280;6919;52.344;14.518;2023-06-19T10:30:55;100611.59;;;28.88;59.16
13695;BME280;6919;52.344;14.518;2023-06-19T10:33:26;100606.31;;;28.56;60.85
13695;BME280;6919;52.344;14.518;2023-06-19T10:35:56;100606.94;;;28.88;63.64
13695;BME280;6919;52.344;14.518;2023-06-19T10:38:24;100615.28;;;29.13;56.57
13695;BME280;6919;52.344;14.518;2023-06-19T10:40:53;100612.25;;;29.10;55.58
13695;BME280;6919;52.344;14.518;2023-06-19T10:43:23;100609.47;;;29.70;53.80
13695;BME280;6919;52.344;14.518;2023-06-19T10:45:55;100608.00;;;30.07;53.39
13695;BME280;6919;52.344;14.518;2023-06-19T10:48:24;100606.44;;;29.61;53.08
13695;BME280;6919;52.344;14.518;2023-06-19T10:50:57;100603.97;;;29.35;55.06
13695;BME280;6919;52.344;14.518;2023-06-19T10:53:26;100598.41;;;29.20;55.58
13695;BME280;6919;52.344;14.518;2023-06-19T10:55:56;100597.31;;;29.36;53.11
13695;BME280;6919;52.344;14.518;2023-06-19T10:58:24;100596.19;;;29.52;52.14
13695;BME280;6919;52.344;14.518;2023-06-19T11:00:53;100594.00;;;29.04;53.10
13695;BME280;6919;52.344;14.518;2023-06-19T11:03:22;100590.63;;;28.92;53.35
13695;BME280;6919;52.344;14.518;2023-06-19T11:05:50;100586.50;;;28.94;56.13
13695;BME280;6919;52.344;14.518;2023-06-19T11:08:22;100588.50;;;29.24;52.86
13695;BME280;6919;52.344;14.518;2023-06-19T11:10:51;100587.38;;;29.70;50.42
13695;BME280;6919;52.344;14.518;2023-06-19T11:13:20;100575.59;;;30.08;51.82
13695;BME280;6919;52.344;14.518;2023-06-19T11:15:49;100570.91;;;30.18;48.29
13695;BME280;6919;52.344;14.518;2023-06-19T11:18:18;100575.63;;;30.03;49.50
13695;BME280;6919;52.344;14.518;2023-06-19T11:20:49;100574.91;;;29.67;49.83
13695;BME280;6919;52.344;14.518;2023-06-19T11:23:28;100573.78;;;29.53;51.39
13695;BME280;6919;52.344;14.518;2023-06-19T11:26:03;100570.81;;;29.10;54.25
13695;BME280;6919;52.344;14.518;2023-06-19T11:28:32;100572.97;;;28.93;54.66
13695;BME280;6919;52.344;14.518;2023-06-19T11:31:03;100571.63;;;29.30;49.58
13695;BME280;6919;52.344;14.518;2023-06-19T11:33:32;100575.75;;;29.48;48.13
13695;BME280;6919;52.344;14.518;2023-06-19T11:36:01;100567.19;;;28.94;51.07
13695;BME280;6919;52.344;14.518;2023-06-19T11:38:31;100569.34;;;28.62;51.21
13695;BME280;6919;52.344;14.518;2023-06-19T11:41:02;100566.19;;;28.29;53.11
13695;BME280;6919;52.344;14.518;2023-06-19T11:43:32;100565.63;;;28.32;54.84
13695;BME280;6919;52.344;14.518;2023-06-19T11:46:04;100574.69;;;28.17;57.39
13695;BME280;6919;52.344;14.518;2023-06-19T11:48:35;100571.81;;;28.59;54.76
13695;BME280;6919;52.344;14.518;2023-06-19T11:51:04;100569.34;;;28.62;53.61
13695;BME280;6919;52.344;14.518;2023-06-19T11:53:33;100567.72;;;28.76;51.99
13695;BME280;6919;52.344;14.518;2023-06-19T11:56:02;100571.31;;;28.92;51.99
13695;BME280;6919;52.344;14.518;2023-06-19T11:58:30;100567.50;;;29.03;51.63
13695;BME280;6919;52.344;14.518;2023-06-19T12:00:58;100569.09;;;28.99;52.06
13695;BME280;6919;52.344;14.518;2023-06-19T12:03:27;100560.25;;;28.77;52.33
13695;BME280;6919;52.344;14.518;2023-06-19T12:05:55;100565.81;;;28.97;51.82
13695;BME280;6919;52.344;14.518;2023-06-19T12:08:23;100569.31;;;28.52;55.11
13695;BME280;6919;52.344;14.518;2023-06-19T12:10:57;100572.13;;;28.77;54.01
13695;BME280;6919;52.344;14.518;2023-06-19T12:13:25;100571.72;;;28.39;55.85
13695;BME280;6919;52.344;14.518;2023-06-19T12:15:53;100575.59;;;28.38;54.62
13695;BME280;6919;52.344;14.518;2023-06-19T12:18:22;100564.00;;;28.36;52.51
13695;BME280;6919;52.344;14.518;2023-06-19T12:20:50;100563.41;;;28.24;53.78
13695;BME280;6919;52.344;14.518;2023-06-19T12:23:18;100566.47;;;28.32;51.66
13695;BME280;6919;52.344;14.518;2023-06-19T12:25:47;100561.31;;;28.51;50.95
13695;BME280;6919;52.344;14.518;2023-06-19T12:28:16;100559.94;;;28.53;50.46
13695;BME280;6919;52.344;14.518;2023-06-19T12:30:46;100553.97;;;28.09;54.52
13695;BME280;6919;52.344;14.518;2023-06-19T12:33:15;100549.28;;;28.10;56.29
13695;BME280;6919;52.344;14.518;2023-06-19T12:35:45;100551.72;;;27.96;57.48
13695;BME280;6919;52.344;14.518;2023-06-19T12:38:13;100545.06;;;27.87;56.84
13695;BME280;6919;52.344;14.518;2023-06-19T12:40:42;100546.09;;;27.81;57.27
13695;BME280;6919;52.344;14.518;2023-06-19T12:43:10;100540.03;;;27.79;56.75
13695;BME280;6919;52.344;14.518;2023-06-19T12:45:40;100531.66;;;27.59;56.77
13695;BME280;6919;52.344;14.518;2023-06-19T12:48:10;100534.16;;;27.61;55.66
13695;BME280;6919;52.344;14.518;2023-06-19T12:50:39;100532.22;;;27.61;55.38
13695;BME280;6919;52.344;14.518;2023-06-19T12:53:07;100521.81;;;27.27;62.84
13695;BME280;6919;52.344;14.518;2023-06-19T12:55:35;100513.91;;;27.04;63.95